Latest Weather Observations for Bickley

IDW60801

Issued at 9:53 pm WST Wednesday 8 July 2020 (issued every 10 minutes, with the page automatically refreshed every 10 minutes)

About weather observations | Map of weather stations | Latest weather observations for WA | Other Formats
Station Details ID: 009240 Name: BICKLEY Lat: -32.01 Lon: 116.14 Height: 384.0 m
Data from the previous 72 hours. | See also: Recent months at Bickley
Date/Time
WST
Temp
°C
App
Temp
°C
Dew
Point
°C
Rel
Hum
%
Delta-T
°C
Wind Press
QNH
hPa
Press
MSL
hPa
Rain since
9am
mm
Dir  Spd
km/h
Gust
km/h
Spd
kts
Gust
kts
08/09:30pm 9.2 6.3 6.5 83 1.3 SSE 11 15 6 8 - - 0.0
08/09:00pm 9.0 5.7 6.3 83 1.3 SSE 13 20 7 11 - - 0.0
08/08:30pm 8.7 5.4 6.5 86 1.0 S 13 17 7 9 - - 0.0
08/08:00pm 8.7 5.4 6.5 86 1.0 S 13 17 7 9 - - 0.0
08/07:30pm 9.1 6.3 6.9 86 1.1 SSW 11 15 6 8 - - 0.0
08/07:00pm 9.3 6.2 7.3 87 1.0 SSW 13 15 7 8 - - 0.0
08/06:30pm 9.4 6.7 7.5 88 0.9 SW 11 13 6 7 - - 0.0
08/06:00pm 10.0 7.8 7.9 87 1.0 WSW 9 13 5 7 - - 0.0
08/05:30pm 10.8 8.6 8.0 83 1.4 WSW 9 11 5 6 - - 0.0
08/05:00pm 11.9 10.5 8.7 81 1.6 W 6 9 3 5 - - 0.0
08/04:30pm 12.2 10.7 8.5 78 1.9 WSW 6 9 3 5 - - 0.0
08/04:00pm 12.5 11.6 9.1 80 1.7 W 4 7 2 4 - - 0.0
08/03:30pm 12.6 11.6 8.9 78 1.9 SSE 4 7 2 4 - - 0.0
08/03:00pm 12.2 11.8 9.6 84 1.3 SSE 2 7 1 4 - - 0.0
08/02:30pm 11.4 9.9 9.3 87 1.1 W 7 11 4 6 - - 0.0
08/02:00pm 11.3 10.1 9.6 89 0.9 WNW 6 9 3 5 - - 0.0
08/01:30pm 11.0 8.9 9.6 91 0.7 WSW 11 17 6 9 - - 0.0
08/01:00pm 11.1 8.4 8.8 86 1.2 SSW 13 20 7 11 - - 0.0
08/12:30pm 12.3 9.8 8.2 76 2.1 WSW 11 17 6 9 - - 0.0
08/12:00pm 13.1 10.6 8.4 73 2.4 SW 11 17 6 9 - - 0.0
08/11:30am 14.1 11.6 8.3 68 3.0 WSW 11 20 6 11 - - 0.0
08/11:00am 13.5 11.7 8.1 70 2.7 WSW 7 11 4 6 - - 0.0
08/10:30am 13.4 12.6 8.0 70 2.7 WSW 2 7 1 4 - - 0.0
08/10:00am 12.4 10.7 7.7 73 2.3 S 6 9 3 5 - - 0.0
08/09:30am 11.8 9.7 6.7 71 2.5 S 7 9 4 5 - - 0.0
08/09:00am 10.5 8.6 6.6 77 1.9 SSE 6 7 3 4 - - 5.6
08/08:30am 9.1 7.2 6.7 85 1.1 SSE 6 9 3 5 - - 5.6
08/08:00am 8.7 6.1 6.3 85 1.1 SSE 9 11 5 6 - - 5.6
08/07:30am 8.3 6.2 6.6 89 0.8 SSE 7 9 4 5 - - 5.6
08/07:00am 8.7 6.9 7.2 90 0.7 S 6 7 3 4 - - 5.6
08/06:30am 8.7 6.3 7.2 90 0.7 S 9 11 5 6 - - 5.6
08/06:00am 8.7 6.3 6.8 88 0.9 SSW 9 13 5 7 - - 5.6
08/05:30am 9.1 7.2 7.7 91 0.7 SW 7 11 4 6 - - 5.6
08/05:00am 9.1 6.9 7.9 92 0.6 WSW 9 11 5 6 - - 5.6
08/04:30am 9.8 7.7 8.2 90 0.8 SW 9 17 5 9 - - 5.6
08/04:00am 9.8 8.4 8.9 94 0.5 WSW 6 9 3 5 - - 5.6
08/03:30am 9.8 7.8 8.7 93 0.6 SSW 9 17 5 9 - - 5.6
08/03:00am 9.7 7.9 9.6 99 0.1 S 9 13 5 7 - - 5.6
08/02:30am 9.8 8.1 9.7 99 0.1 S 9 15 5 8 - - 5.6
08/02:00am 10.0 8.3 9.9 99 0.1 SSW 9 13 5 7 - - 5.6
08/01:30am 10.0 8.3 9.9 99 0.1 SSW 9 15 5 8 - - 5.6
08/01:00am 10.2 8.2 10.1 99 0.1 SW 11 22 6 12 - - 5.6
08/12:30am 10.4 8.0 10.2 99 0.1 SW 13 24 7 13 - - 5.6
08/12:00am 10.5 7.4 10.3 99 0.1 SW 17 30 9 16 - - 5.2
 
Date/Time
WST
Temp
°C
App
Temp
°C
Dew
Point
°C
Rel
Hum
%
Delta-T
°C
Wind Press
QNH
hPa
Press
MSL
hPa
Rain since
9am
mm
Dir  Spd
km/h
Gust
km/h
Spd
kts
Gust
kts
07/11:30pm 10.7 8.0 10.5 99 0.1 WNW 15 26 8 14 - - 3.6
07/11:00pm 10.7 8.0 10.5 99 0.1 WNW 15 28 8 15 - - 1.2
07/10:30pm 10.5 8.2 10.3 99 0.1 NW 13 20 7 11 - - 1.0
07/10:00pm 10.3 7.9 10.1 99 0.1 NW 13 20 7 11 - - 1.0
07/09:30pm 10.3 8.3 10.1 99 0.1 NW 11 17 6 9 - - 1.0
07/09:00pm 10.6 8.3 10.4 99 0.1 NW 13 17 7 9 - - 1.0
07/08:30pm 10.9 8.7 10.7 99 0.1 NW 13 17 7 9 - - 1.0
07/08:00pm 10.7 8.4 10.5 99 0.1 WNW 13 20 7 11 - - 1.0
07/07:30pm 11.0 9.2 10.8 99 0.1 WNW 11 15 6 8 - - 1.0
07/07:00pm 11.3 8.8 11.1 99 0.1 W 15 24 8 13 - - 1.0
07/06:30pm 11.3 10.0 11.1 99 0.1 WNW 9 15 5 8 - - 1.0
07/06:00pm 11.3 9.5 11.0 98 0.2 WNW 11 17 6 9 - - 1.0
07/05:30pm 11.3 9.4 10.5 95 0.4 WNW 11 15 6 8 - - 1.0
07/05:00pm 11.4 9.0 10.1 92 0.7 WNW 13 20 7 11 - - 1.0
07/04:30pm 11.4 8.6 10.1 92 0.7 W 15 24 8 13 - - 1.0
07/04:00pm 11.6 9.4 10.8 95 0.4 WNW 13 26 7 14 - - 0.8
07/03:30pm 12.9 9.4 8.8 76 2.1 WNW 17 30 9 16 - - 0.8
07/03:00pm 13.4 10.4 9.3 76 2.1 W 15 30 8 16 - - 0.8
07/02:30pm 12.7 10.3 10.1 84 1.4 WNW 13 24 7 13 - - 0.8
07/02:00pm 13.4 10.0 9.3 76 2.1 WNW 17 30 9 16 - - 0.8
07/01:30pm 13.7 10.1 8.5 71 2.7 W 17 32 9 17 - - 0.8
07/01:00pm 14.8 11.7 10.2 74 2.5 WNW 17 30 9 16 - - 0.8
07/12:30pm 13.1 10.7 10.1 82 1.6 W 13 26 7 14 - - 0.8
07/12:00pm 12.8 9.8 9.4 80 1.8 WNW 15 28 8 15 - - 0.8
07/11:30am 12.1 10.0 11.0 93 0.6 WNW 13 22 7 12 - - 0.8
07/11:00am 12.7 10.0 10.2 85 1.3 WNW 15 26 8 14 - - 0.4
07/10:30am 11.9 10.2 11.1 95 0.4 WNW 11 17 6 9 - - 0.4
07/10:00am 11.1 9.2 10.5 96 0.3 WNW 11 24 6 13 - - 0.4
07/09:30am 11.8 10.1 9.7 87 1.1 WNW 9 17 5 9 - - 0.0
07/09:00am 11.2 9.4 9.6 90 0.8 WNW 9 15 5 8 - - 10.0
07/08:30am 10.8 9.1 9.7 93 0.6 NW 9 15 5 8 - - 10.0
07/08:00am 10.3 8.4 9.2 93 0.6 NW 9 13 5 7 - - 10.0
07/07:30am 10.1 8.2 8.9 92 0.6 WNW 9 13 5 7 - - 10.0
07/07:00am 9.9 7.7 9.3 96 0.3 W 11 15 6 8 - - 10.0
07/06:30am 9.9 7.7 9.3 96 0.3 W 11 15 6 8 - - 10.0
07/06:00am 9.9 8.0 9.0 94 0.5 NW 9 13 5 7 - - 9.8
07/05:30am 10.0 7.9 8.3 89 0.8 NW 9 15 5 8 - - 9.8
07/05:00am 10.6 7.2 7.5 81 1.5 W 15 22 8 12 - - 9.8
07/04:30am 9.8 6.4 7.6 86 1.1 W 15 22 8 12 - - 9.8
07/04:00am 9.5 6.7 8.4 93 0.5 WNW 13 20 7 11 - - 9.8
07/03:30am 9.8 7.2 9.2 96 0.3 WNW 13 15 7 8 - - 9.8
07/03:00am 10.4 7.8 9.5 94 0.5 NW 13 24 7 13 - - 9.8
07/02:30am 11.4 8.2 8.3 81 1.6 W 15 24 8 13 - - 9.4
07/02:00am 11.4 7.9 7.3 76 2.0 W 15 24 8 13 - - 9.4
07/01:30am 11.0 7.7 7.9 81 1.5 WNW 15 22 8 12 - - 9.4
07/01:00am 11.2 8.4 8.4 83 1.4 WNW 13 20 7 11 - - 9.4
07/12:30am 11.4 7.5 7.3 76 2.0 WNW 17 26 9 14 - - 9.4
07/12:00am 11.1 7.3 7.4 78 1.8 WNW 17 24 9 13 - - 9.4
 
Date/Time
WST
Temp
°C
App
Temp
°C
Dew
Point
°C
Rel
Hum
%
Delta-T
°C
Wind Press
QNH
hPa
Press
MSL
hPa
Rain since
9am
mm
Dir  Spd
km/h
Gust
km/h
Spd
kts
Gust
kts
06/11:30pm 11.6 7.7 8.5 81 1.6 WNW 19 32 10 17 - - 9.4
06/11:00pm 11.5 7.8 8.0 79 1.7 WNW 17 28 9 15 - - 9.4
06/10:30pm 11.4 7.4 8.4 82 1.5 WNW 19 28 10 15 - - 9.4
06/10:00pm 11.4 8.0 9.3 87 1.1 WNW 17 30 9 16 - - 9.4
06/09:30pm 11.4 7.3 8.8 84 1.3 WNW 20 35 11 19 - - 9.4
06/09:00pm 10.9 6.8 8.7 86 1.1 WNW 20 32 11 17 - - 9.4
06/08:30pm 11.2 7.0 9.6 90 0.8 WNW 22 33 12 18 - - 9.4
06/08:00pm 11.4 8.0 11.2 99 0.1 WNW 20 30 11 16 - - 9.4
06/07:30pm 11.3 7.1 11.1 99 0.1 WNW 24 48 13 26 - - 9.4
06/07:00pm 11.5 8.1 11.3 99 0.1 WNW 20 41 11 22 - - 8.0
06/06:30pm 11.7 8.0 11.5 99 0.1 WNW 22 43 12 23 - - 8.0
06/06:00pm 11.6 7.1 11.4 99 0.1 WNW 26 54 14 29 - - 7.6
06/05:49pm 11.7 6.9 11.5 99 0.1 WNW 28 54 15 29 - - 6.6
06/05:30pm 11.6 7.5 11.4 99 0.1 WNW 24 48 13 26 - - 5.6
06/05:00pm 11.7 6.9 11.5 99 0.1 WNW 28 48 15 26 - - 4.4
06/04:55pm 11.8 7.0 11.6 99 0.1 WNW 28 48 15 26 - - 4.2
06/04:30pm 12.1 8.0 11.6 97 0.3 WNW 24 44 13 24 - - 3.0
06/04:09pm 12.2 7.5 12.0 99 0.1 WNW 28 54 15 29 - - 2.8
06/04:00pm 12.3 8.8 12.1 99 0.1 NW 22 39 12 21 - - 2.8
06/03:30pm 12.2 7.9 12.0 99 0.1 NW 26 50 14 27 - - 2.6
06/03:00pm 12.2 6.7 12.0 99 0.1 WNW 32 52 17 28 - - 2.6
06/02:56pm 11.9 7.1 11.6 98 0.2 NW 28 52 15 28 - - 2.6
06/02:30pm 12.2 7.8 11.7 97 0.3 WNW 26 44 14 24 - - 1.4
06/02:00pm 12.6 8.4 9.6 82 1.6 WNW 22 39 12 21 - - 0.2
06/01:30pm 14.6 7.8 6.9 60 3.8 WNW 32 52 17 28 - - 0.0
06/01:00pm 14.0 7.7 8.8 71 2.7 NW 32 57 17 31 - - 0.0
06/12:34pm 14.5 8.9 8.9 69 2.9 WNW 28 50 15 27 - - 0.0
06/12:30pm 14.6 9.8 9.0 69 2.9 WNW 24 50 13 27 - - 0.0
06/12:11pm 13.9 8.2 8.3 69 2.9 WNW 28 46 15 25 - - 0.0
06/12:00pm 14.0 8.7 8.4 69 2.9 WNW 26 48 14 26 - - 0.0
06/11:46am 14.0 8.3 8.4 69 2.9 WNW 28 48 15 26 - - 0.0
06/11:30am 14.2 8.7 9.0 71 2.7 NW 28 44 15 24 - - 0.0
06/11:00am 13.9 9.5 10.3 79 1.9 NW 24 44 13 24 - - 0.0
06/10:30am 12.8 9.1 11.5 92 0.7 NNW 22 33 12 18 - - 0.0
06/10:00am 12.2 8.6 10.6 90 0.8 NW 20 35 11 19 - - 0.0
06/09:30am 12.1 9.1 11.9 99 0.1 NW 19 35 10 19 - - 0.0
06/09:00am 11.5 8.3 11.3 99 0.1 NNW 19 30 10 16 - - 5.8
06/08:30am 11.4 8.6 11.2 99 0.1 NNW 17 32 9 17 - - 5.8
06/08:00am 11.4 9.3 11.2 99 0.1 NNW 13 24 7 13 - - 3.4
06/07:30am 11.2 9.1 11.0 99 0.1 NNW 13 26 7 14 - - 3.4
06/07:00am 11.2 8.7 11.0 99 0.1 NNW 15 24 8 13 - - 3.2
06/06:30am 11.0 8.8 10.8 99 0.1 NW 13 22 7 12 - - 3.2
06/06:00am 11.3 9.2 11.1 99 0.1 NW 13 24 7 13 - - 3.2
06/05:30am 11.7 9.3 11.5 99 0.1 NNW 15 26 8 14 - - 2.8
06/05:00am 11.8 9.5 11.6 99 0.1 NNW 15 26 8 14 - - 2.8
06/04:30am 11.9 9.2 11.7 99 0.1 NW 17 35 9 19 - - 2.8
06/04:00am 12.0 8.6 11.4 96 0.3 NW 20 39 11 21 - - 2.2
06/03:30am 12.0 9.1 11.1 94 0.5 NNW 17 28 9 15 - - 1.6
06/03:00am 12.3 9.9 11.5 95 0.4 NNW 15 26 8 14 - - 1.6
06/02:30am 12.3 9.5 11.4 94 0.5 NW 17 28 9 15 - - 1.6
06/02:00am 12.3 9.8 11.0 92 0.7 NNW 15 20 8 11 - - 1.6
06/01:30am 12.0 9.5 11.1 94 0.5 NNW 15 20 8 11 - - 1.6
06/01:00am 11.9 9.9 11.4 97 0.3 NW 13 17 7 9 - - 1.4
06/12:30am 11.9 10.3 11.7 99 0.1 NNW 11 17 6 9 - - 1.4
06/12:00am 12.3 11.2 12.1 99 0.1 WNW 9 13 5 7 - - 1.4
 
Date/Time
WST
Temp
°C
App
Temp
°C
Dew
Point
°C
Rel
Hum
%
Delta-T
°C
Wind Press
QNH
hPa
Press
MSL
hPa
Rain since
9am
mm
Dir  Spd
km/h
Gust
km/h
Spd
kts
Gust
kts
05/11:30pm 12.4 10.6 12.2 99 0.1 W 13 20 7 11 - - 1.4
05/11:00pm 12.5 9.6 12.3 99 0.1 W 19 28 10 15 - - 1.4
05/10:30pm 13.8 12.0 13.2 96 0.3 WNW 15 24 8 13 - - 0.6
05/10:00pm 13.6 11.5 11.1 85 1.3 WNW 13 22 7 12 - - 0.4

Other formats

Comma delimited format used in spreadsheet applications
http://www.bom.gov.au/fwo/IDW60801/IDW60801.95610.axf

JavaScript Object Notation format (JSON) in row-major order
http://www.bom.gov.au/fwo/IDW60801/IDW60801.95610.json

Data quality

Most of these data are generated automatically and are frequently updated. Quality checks on data are not normally performed. It is possible for incorrect values to appear. Refer to information at About Latest Weather Observations and please check the disclaimer before using these data.